sensor_id;sensor_type;location;lat;lon;timestamp;pressure;altitude;pressure_sealevel;temperature;humidity
1926;BME280;964;42.606;23.588;2023-03-21T00:00:39;94376.16;;;28.65;23.51
1926;BME280;964;42.606;23.588;2023-03-21T00:03:06;94373.38;;;27.98;23.79
1926;BME280;964;42.606;23.588;2023-03-21T00:05:33;94363.72;;;28.64;23.83
1926;BME280;964;42.606;23.588;2023-03-21T00:08:00;94361.69;;;28.89;23.41
1926;BME280;964;42.606;23.588;2023-03-21T00:10:28;94349.25;;;29.87;22.59
1926;BME280;964;42.606;23.588;2023-03-21T00:12:55;94351.72;;;29.70;22.66
1926;BME280;964;42.606;23.588;2023-03-21T00:15:23;94354.91;;;28.99;23.39
1926;BME280;964;42.606;23.588;2023-03-21T00:17:50;94350.53;;;29.21;23.13
1926;BME280;964;42.606;23.588;2023-03-21T00:20:18;94339.69;;;29.62;22.76
1926;BME280;964;42.606;23.588;2023-03-21T00:22:46;94338.81;;;29.01;23.09
1926;BME280;964;42.606;23.588;2023-03-21T00:25:12;94337.88;;;29.53;22.84
1926;BME280;964;42.606;23.588;2023-03-21T00:27:41;94333.81;;;29.49;22.85
1926;BME280;964;42.606;23.588;2023-03-21T00:30:09;94330.06;;;29.66;22.71
1926;BME280;964;42.606;23.588;2023-03-21T00:32:37;94334.41;;;29.03;23.33
1926;BME280;964;42.606;23.588;2023-03-21T00:35:06;94320.38;;;29.45;22.90
1926;BME280;964;42.606;23.588;2023-03-21T00:37:33;94315.47;;;30.36;22.15
1926;BME280;964;42.606;23.588;2023-03-21T00:39:59;94307.91;;;30.25;22.34
1926;BME280;964;42.606;23.588;2023-03-21T00:42:26;94316.34;;;31.41;21.00
1926;BME280;964;42.606;23.588;2023-03-21T00:44:54;94305.75;;;32.19;20.71
1926;BME280;964;42.606;23.588;2023-03-21T00:47:21;94315.19;;;32.07;21.01
1926;BME280;964;42.606;23.588;2023-03-21T00:49:47;94320.78;;;32.51;20.59
1926;BME280;964;42.606;23.588;2023-03-21T00:52:14;94313.53;;;32.48;20.86
1926;BME280;964;42.606;23.588;2023-03-21T00:54:41;94314.56;;;32.56;20.16
1926;BME280;964;42.606;23.588;2023-03-21T00:57:07;94323.78;;;32.42;20.15
1926;BME280;964;42.606;23.588;2023-03-21T00:59:34;94330.97;;;30.96;21.72
1926;BME280;964;42.606;23.588;2023-03-21T01:02:02;94326.78;;;31.85;21.51
1926;BME280;964;42.606;23.588;2023-03-21T01:04:32;94332.31;;;31.48;21.75
1926;BME280;964;42.606;23.588;2023-03-21T01:07:00;94331.09;;;32.03;21.02
1926;BME280;964;42.606;23.588;2023-03-21T01:09:26;94329.97;;;32.37;21.21
1926;BME280;964;42.606;23.588;2023-03-21T01:11:53;94323.09;;;31.94;20.41
1926;BME280;964;42.606;23.588;2023-03-21T01:14:21;94329.59;;;31.96;20.78
1926;BME280;964;42.606;23.588;2023-03-21T01:16:48;94332.56;;;31.93;21.06
1926;BME280;964;42.606;23.588;2023-03-21T01:19:19;94326.59;;;32.00;20.39
1926;BME280;964;42.606;23.588;2023-03-21T01:21:46;94328.03;;;31.79;21.16
1926;BME280;964;42.606;23.588;2023-03-21T01:24:13;94327.38;;;31.52;20.91
1926;BME280;964;42.606;23.588;2023-03-21T01:26:40;94334.81;;;31.46;21.55
1926;BME280;964;42.606;23.588;2023-03-21T01:29:06;94331.72;;;31.70;21.26
1926;BME280;964;42.606;23.588;2023-03-21T01:31:33;94328.31;;;31.86;20.89
1926;BME280;964;42.606;23.588;2023-03-21T01:34:00;94332.00;;;31.78;20.88
1926;BME280;964;42.606;23.588;2023-03-21T01:36:28;94325.44;;;31.58;21.15
1926;BME280;964;42.606;23.588;2023-03-21T01:38:54;94327.38;;;31.52;21.64
1926;BME280;964;42.606;23.588;2023-03-21T01:41:25;94340.03;;;29.69;23.12
1926;BME280;964;42.606;23.588;2023-03-21T01:43:53;94337.34;;;29.90;23.04
1926;BME280;964;42.606;23.588;2023-03-21T01:46:27;94330.75;;;30.22;22.35
1926;BME280;964;42.606;23.588;2023-03-21T01:48:57;94321.25;;;30.63;22.31
1926;BME280;964;42.606;23.588;2023-03-21T01:51:28;94324.88;;;29.48;23.06
1926;BME280;964;42.606;23.588;2023-03-21T01:53:56;94329.22;;;28.91;23.56
1926;BME280;964;42.606;23.588;2023-03-21T01:56:24;94329.88;;;28.86;23.88
1926;BME280;964;42.606;23.588;2023-03-21T01:58:57;94325.59;;;29.84;22.88
1926;BME280;964;42.606;23.588;2023-03-21T02:01:30;94316.22;;;30.56;22.33
1926;BME280;964;42.606;23.588;2023-03-21T02:04:00;94322.84;;;31.07;21.68
1926;BME280;964;42.606;23.588;2023-03-21T02:06:37;94324.47;;;31.25;21.73
1926;BME280;964;42.606;23.588;2023-03-21T02:09:11;94327.59;;;31.12;21.82
1926;BME280;964;42.606;23.588;2023-03-21T02:11:40;94325.75;;;31.29;21.61
1926;BME280;964;42.606;23.588;2023-03-21T02:14:13;94326.97;;;30.97;22.20
1926;BME280;964;42.606;23.588;2023-03-21T02:16:47;94333.41;;;29.91;23.00
1926;BME280;964;42.606;23.588;2023-03-21T02:23:03;94329.53;;;30.23;22.79
1926;BME280;964;42.606;23.588;2023-03-21T02:28:39;94321.00;;;30.15;22.83
1926;BME280;964;42.606;23.588;2023-03-21T02:31:23;94323.72;;;29.55;23.37
1926;BME280;964;42.606;23.588;2023-03-21T02:34:30;94311.38;;;29.59;23.39
1926;BME280;964;42.606;23.588;2023-03-21T02:37:11;94322.19;;;28.69;24.37
1926;BME280;964;42.606;23.588;2023-03-21T02:40:00;94322.69;;;29.17;23.73
1926;BME280;964;42.606;23.588;2023-03-21T02:42:39;94324.50;;;29.76;23.14
1926;BME280;964;42.606;23.588;2023-03-21T02:45:15;94309.44;;;29.45;23.60
1926;BME280;964;42.606;23.588;2023-03-21T02:47:45;94311.53;;;29.01;23.75
1926;BME280;964;42.606;23.588;2023-03-21T02:50:15;94317.44;;;29.29;23.42
1926;BME280;964;42.606;23.588;2023-03-21T02:52:47;94319.31;;;28.20;24.33
1926;BME280;964;42.606;23.588;2023-03-21T02:55:17;94326.31;;;27.97;24.30
1926;BME280;964;42.606;23.588;2023-03-21T02:57:47;94311.22;;;29.13;23.34
1926;BME280;964;42.606;23.588;2023-03-21T03:00:18;94315.59;;;29.60;22.95
1926;BME280;964;42.606;23.588;2023-03-21T03:02:47;94324.16;;;30.08;22.54
1926;BME280;964;42.606;23.588;2023-03-21T03:05:17;94319.84;;;29.61;22.79
1926;BME280;964;42.606;23.588;2023-03-21T03:07:55;94319.16;;;29.66;22.82
1926;BME280;964;42.606;23.588;2023-03-21T03:10:32;94319.28;;;29.22;23.32
1926;BME280;964;42.606;23.588;2023-03-21T03:13:13;94318.97;;;28.86;23.65
1926;BME280;964;42.606;23.588;2023-03-21T03:15:46;94315.81;;;29.07;23.38
1926;BME280;964;42.606;23.588;2023-03-21T03:18:20;94321.47;;;29.74;22.89
1926;BME280;964;42.606;23.588;2023-03-21T03:20:58;94321.09;;;30.01;22.67
1926;BME280;964;42.606;23.588;2023-03-21T03:23:33;94319.56;;;30.00;22.63
1926;BME280;964;42.606;23.588;2023-03-21T03:26:06;94317.22;;;30.13;22.51
1926;BME280;964;42.606;23.588;2023-03-21T03:28:38;94326.47;;;29.95;22.68
1926;BME280;964;42.606;23.588;2023-03-21T03:31:07;94325.38;;;29.47;23.04
1926;BME280;964;42.606;23.588;2023-03-21T03:33:41;94317.44;;;29.14;23.16
1926;BME280;964;42.606;23.588;2023-03-21T03:36:11;94320.03;;;29.23;23.23
1926;BME280;964;42.606;23.588;2023-03-21T03:38:41;94318.59;;;28.93;23.46
1926;BME280;964;42.606;23.588;2023-03-21T03:41:10;94324.97;;;28.16;24.35
1926;BME280;964;42.606;23.588;2023-03-21T03:43:42;94318.44;;;28.52;23.80
1926;BME280;964;42.606;23.588;2023-03-21T03:46:17;94317.00;;;28.42;23.99
1926;BME280;964;42.606;23.588;2023-03-21T03:48:48;94318.19;;;28.12;24.17
1926;BME280;964;42.606;23.588;2023-03-21T03:51:19;94324.34;;;27.98;24.26
1926;BME280;964;42.606;23.588;2023-03-21T03:53:53;94321.22;;;28.29;24.06
1926;BME280;964;42.606;23.588;2023-03-21T03:56:22;94316.31;;;28.18;24.21
1926;BME280;964;42.606;23.588;2023-03-21T03:58:49;94324.31;;;27.03;25.49
1926;BME280;964;42.606;23.588;2023-03-21T04:01:16;94331.91;;;27.22;25.13
1926;BME280;964;42.606;23.588;2023-03-21T04:03:45;94320.19;;;27.88;24.38
1926;BME280;964;42.606;23.588;2023-03-21T04:06:13;94328.66;;;27.90;24.37
1926;BME280;964;42.606;23.588;2023-03-21T04:08:40;94326.50;;;27.94;24.66
1926;BME280;964;42.606;23.588;2023-03-21T04:11:09;94325.44;;;27.91;24.24
1926;BME280;964;42.606;23.588;2023-03-21T04:13:36;94327.13;;;27.89;24.30
1926;BME280;964;42.606;23.588;2023-03-21T04:16:03;94317.56;;;27.93;24.44
1926;BME280;964;42.606;23.588;2023-03-21T04:18:30;94316.19;;;27.98;24.14
1926;BME280;964;42.606;23.588;2023-03-21T04:20:57;94315.25;;;27.77;24.22
1926;BME280;964;42.606;23.588;2023-03-21T04:23:23;94322.88;;;27.40;24.63
1926;BME280;964;42.606;23.588;2023-03-21T04:25:51;94330.88;;;26.87;25.65
1926;BME280;964;42.606;23.588;2023-03-21T04:28:19;94321.28;;;27.01;24.97
1926;BME280;964;42.606;23.588;2023-03-21T04:30:47;94324.56;;;27.14;24.92
1926;BME280;964;42.606;23.588;2023-03-21T04:33:16;94321.03;;;27.22;24.69
1926;BME280;964;42.606;23.588;2023-03-21T04:35:44;94331.88;;;27.32;24.88
1926;BME280;964;42.606;23.588;2023-03-21T04:38:11;94324.84;;;27.40;24.68
1926;BME280;964;42.606;23.588;2023-03-21T04:40:38;94332.97;;;27.25;25.03
1926;BME280;964;42.606;23.588;2023-03-21T04:43:05;94330.38;;;27.30;24.84
1926;BME280;964;42.606;23.588;2023-03-21T04:45:33;94318.47;;;27.75;24.41
1926;BME280;964;42.606;23.588;2023-03-21T04:47:59;94320.44;;;28.13;24.29
1926;BME280;964;42.606;23.588;2023-03-21T04:50:26;94322.78;;;28.73;23.64
1926;BME280;964;42.606;23.588;2023-03-21T04:52:53;94332.50;;;28.65;23.93
1926;BME280;964;42.606;23.588;2023-03-21T04:55:19;94326.16;;;28.68;23.75
1926;BME280;964;42.606;23.588;2023-03-21T04:57:46;94327.13;;;29.00;23.50
1926;BME280;964;42.606;23.588;2023-03-21T05:00:14;94325.56;;;28.94;23.55
1926;BME280;964;42.606;23.588;2023-03-21T05:02:43;94326.63;;;29.31;23.33
1926;BME280;964;42.606;23.588;2023-03-21T05:05:10;94335.09;;;29.33;23.33
1926;BME280;964;42.606;23.588;2023-03-21T05:07:38;94331.13;;;29.34;23.18
1926;BME280;964;42.606;23.588;2023-03-21T05:10:06;94331.13;;;29.34;23.04
1926;BME280;964;42.606;23.588;2023-03-21T05:12:33;94335.13;;;29.74;22.66
1926;BME280;964;42.606;23.588;2023-03-21T05:15:00;94328.03;;;29.82;22.77
1926;BME280;964;42.606;23.588;2023-03-21T05:17:27;94337.19;;;29.79;22.97
1926;BME280;964;42.606;23.588;2023-03-21T05:19:55;94331.88;;;29.90;22.97
1926;BME280;964;42.606;23.588;2023-03-21T05:22:22;94326.56;;;30.01;22.71
1926;BME280;964;42.606;23.588;2023-03-21T05:24:51;94338.56;;;30.09;22.85
1926;BME280;964;42.606;23.588;2023-03-21T05:27:20;94340.13;;;29.95;22.83
1926;BME280;964;42.606;23.588;2023-03-21T05:30:04;94337.41;;;30.15;22.59
1926;BME280;964;42.606;23.588;2023-03-21T05:32:31;94337.19;;;30.19;22.82
1926;BME280;964;42.606;23.588;2023-03-21T05:34:59;94340.78;;;30.31;22.52
1926;BME280;964;42.606;23.588;2023-03-21T05:37:27;94330.75;;;30.22;22.72
1926;BME280;964;42.606;23.588;2023-03-21T05:39:54;94327.56;;;30.24;22.42
1926;BME280;964;42.606;23.588;2023-03-21T05:42:21;94328.72;;;30.69;22.57
1926;BME280;964;42.606;23.588;2023-03-21T05:44:48;94328.19;;;30.64;22.66
1926;BME280;964;42.606;23.588;2023-03-21T05:47:16;94331.97;;;30.21;22.62
1926;BME280;964;42.606;23.588;2023-03-21T05:49:43;94324.06;;;30.03;22.77
1926;BME280;964;42.606;23.588;2023-03-21T05:52:13;94319.44;;;29.68;22.76
1926;BME280;964;42.606;23.588;2023-03-21T05:54:40;94326.13;;;29.67;22.99
1926;BME280;964;42.606;23.588;2023-03-21T05:57:06;94312.84;;;30.21;22.50
1926;BME280;964;42.606;23.588;2023-03-21T05:59:33;94312.75;;;30.36;22.87
1926;BME280;964;42.606;23.588;2023-03-21T06:02:00;94308.63;;;30.46;22.83
1926;BME280;964;42.606;23.588;2023-03-21T06:04:27;94313.91;;;30.81;22.99
1926;BME280;964;42.606;23.588;2023-03-21T06:06:55;94315.25;;;30.91;22.47
1926;BME280;964;42.606;23.588;2023-03-21T06:09:23;94310.94;;;31.16;22.62
1926;BME280;964;42.606;23.588;2023-03-21T06:11:52;94301.66;;;31.39;22.37
1926;BME280;964;42.606;23.588;2023-03-21T06:14:20;94306.34;;;31.33;22.43
1926;BME280;964;42.606;23.588;2023-03-21T06:16:46;94303.38;;;31.36;22.57
1926;BME280;964;42.606;23.588;2023-03-21T06:19:13;94297.53;;;31.54;22.38
1926;BME280;964;42.606;23.588;2023-03-21T06:21:40;94289.91;;;31.81;21.93
1926;BME280;964;42.606;23.588;2023-03-21T06:24:07;94285.31;;;32.20;21.96
1926;BME280;964;42.606;23.588;2023-03-21T06:26:35;94283.88;;;32.52;21.28
1926;BME280;964;42.606;23.588;2023-03-21T06:29:02;94284.91;;;32.66;20.89
1926;BME280;964;42.606;23.588;2023-03-21T06:31:29;94280.41;;;32.80;20.92
1926;BME280;964;42.606;23.588;2023-03-21T06:33:56;94293.63;;;32.81;20.96
1926;BME280;964;42.606;23.588;2023-03-21T06:36:23;94290.88;;;32.76;20.19
1926;BME280;964;42.606;23.588;2023-03-21T06:38:50;94286.63;;;33.25;20.06
1926;BME280;964;42.606;23.588;2023-03-21T06:41:16;94288.38;;;33.17;20.08
1926;BME280;964;42.606;23.588;2023-03-21T06:43:45;94295.84;;;33.27;19.47
1926;BME280;964;42.606;23.588;2023-03-21T06:46:12;94294.56;;;33.39;19.43
1926;BME280;964;42.606;23.588;2023-03-21T06:48:39;94286.03;;;33.48;19.54
1926;BME280;964;42.606;23.588;2023-03-21T06:51:09;94292.06;;;33.47;19.20
1926;BME280;964;42.606;23.588;2023-03-21T06:53:36;94295.53;;;33.70;19.47
1926;BME280;964;42.606;23.588;2023-03-21T06:56:04;94290.97;;;33.83;19.43
1926;BME280;964;42.606;23.588;2023-03-21T06:58:31;94299.53;;;33.52;19.77
1926;BME280;964;42.606;23.588;2023-03-21T07:00:59;94302.19;;;33.91;19.16
1926;BME280;964;42.606;23.588;2023-03-21T07:03:27;94290.59;;;34.09;19.11
1926;BME280;964;42.606;23.588;2023-03-21T07:05:54;94290.22;;;33.77;19.65
1926;BME280;964;42.606;23.588;2023-03-21T07:08:21;94294.84;;;34.05;20.58
1926;BME280;964;42.606;23.588;2023-03-21T07:10:48;94300.63;;;34.01;20.72
1926;BME280;964;42.606;23.588;2023-03-21T07:13:15;94302.97;;;34.38;20.60
1926;BME280;964;42.606;23.588;2023-03-21T07:15:41;94307.84;;;34.15;20.74
1926;BME280;964;42.606;23.588;2023-03-21T07:18:09;94310.94;;;34.41;20.29
1926;BME280;964;42.606;23.588;2023-03-21T07:20:36;94308.47;;;34.32;20.20
1926;BME280;964;42.606;23.588;2023-03-21T07:23:04;94309.31;;;34.63;20.24
1926;BME280;964;42.606;23.588;2023-03-21T07:25:31;94305.38;;;34.88;19.85
1926;BME280;964;42.606;23.588;2023-03-21T07:27:58;94313.53;;;34.99;19.65
1926;BME280;964;42.606;23.588;2023-03-21T07:30:26;94307.84;;;34.91;19.96
1926;BME280;964;42.606;23.588;2023-03-21T07:32:53;94306.34;;;35.20;19.52
1926;BME280;964;42.606;23.588;2023-03-21T07:35:21;94305.28;;;35.53;19.25
1926;BME280;964;42.606;23.588;2023-03-21T07:37:47;94297.97;;;35.31;19.24
1926;BME280;964;42.606;23.588;2023-03-21T07:40:15;94304.97;;;35.62;19.33
1926;BME280;964;42.606;23.588;2023-03-21T07:42:42;94297.22;;;36.22;19.20
1926;BME280;964;42.606;23.588;2023-03-21T07:45:09;94300.94;;;36.44;18.74
1926;BME280;964;42.606;23.588;2023-03-21T07:47:39;94288.19;;;36.22;19.03
1926;BME280;964;42.606;23.588;2023-03-21T07:50:06;94291.56;;;35.48;19.13
1926;BME280;964;42.606;23.588;2023-03-21T07:52:34;94288.06;;;35.90;18.44
1926;BME280;964;42.606;23.588;2023-03-21T07:55:01;94290.19;;;35.35;19.13
1926;BME280;964;42.606;23.588;2023-03-21T07:57:28;94290.53;;;35.51;18.89
1926;BME280;964;42.606;23.588;2023-03-21T07:59:54;94295.78;;;34.94;19.05
1926;BME280;964;42.606;23.588;2023-03-21T08:02:21;94299.13;;;35.41;18.83
1926;BME280;964;42.606;23.588;2023-03-21T08:04:48;94301.03;;;35.28;18.88
1926;BME280;964;42.606;23.588;2023-03-21T08:07:15;94305.63;;;34.90;18.84
1926;BME280;964;42.606;23.588;2023-03-21T08:09:43;94300.28;;;35.27;19.30
1926;BME280;964;42.606;23.588;2023-03-21T08:12:10;94297.75;;;35.29;19.14
1926;BME280;964;42.606;23.588;2023-03-21T08:14:37;94300.84;;;35.20;19.08
1926;BME280;964;42.606;23.588;2023-03-21T08:17:05;94306.88;;;35.19;19.11
1926;BME280;964;42.606;23.588;2023-03-21T08:19:34;94297.00;;;34.99;18.95
1926;BME280;964;42.606;23.588;2023-03-21T08:22:02;94298.00;;;35.56;18.34
1926;BME280;964;42.606;23.588;2023-03-21T08:24:30;94299.25;;;35.79;18.71
1926;BME280;964;42.606;23.588;2023-03-21T08:26:59;94305.38;;;35.42;18.68
1926;BME280;964;42.606;23.588;2023-03-21T08:29:27;94307.53;;;35.79;18.51
1926;BME280;964;42.606;23.588;2023-03-21T08:31:54;94293.56;;;36.14;17.90
1926;BME280;964;42.606;23.588;2023-03-21T08:34:20;94296.75;;;36.18;18.33
1926;BME280;964;42.606;23.588;2023-03-21T08:36:48;94291.38;;;36.45;18.55
1926;BME280;964;42.606;23.588;2023-03-21T08:39:15;94299.19;;;35.84;18.72
1926;BME280;964;42.606;23.588;2023-03-21T08:41:41;94298.91;;;35.15;18.78
1926;BME280;964;42.606;23.588;2023-03-21T08:44:09;94292.81;;;35.71;18.74
1926;BME280;964;42.606;23.588;2023-03-21T08:46:36;94294.94;;;35.35;18.59
1926;BME280;964;42.606;23.588;2023-03-21T08:49:03;94297.66;;;35.40;18.76
1926;BME280;964;42.606;23.588;2023-03-21T08:51:29;94301.66;;;35.39;18.74
1926;BME280;964;42.606;23.588;2023-03-21T08:53:58;94303.84;;;35.22;18.74
1926;BME280;964;42.606;23.588;2023-03-21T08:56:25;94305.97;;;34.75;18.92
1926;BME280;964;42.606;23.588;2023-03-21T08:58:51;94297.41;;;35.38;18.28
1926;BME280;964;42.606;23.588;2023-03-21T09:01:19;94295.56;;;35.47;18.10
1926;BME280;964;42.606;23.588;2023-03-21T09:03:46;94293.63;;;35.17;19.10
1926;BME280;964;42.606;23.588;2023-03-21T09:06:13;94284.84;;;35.43;18.37
1926;BME280;964;42.606;23.588;2023-03-21T09:08:40;94285.63;;;35.14;18.95
1926;BME280;964;42.606;23.588;2023-03-21T09:11:07;94280.59;;;35.42;18.76
1926;BME280;964;42.606;23.588;2023-03-21T09:13:34;94292.16;;;35.40;18.91
1926;BME280;964;42.606;23.588;2023-03-21T09:16:01;94282.19;;;35.02;18.81
1926;BME280;964;42.606;23.588;2023-03-21T09:18:30;94282.75;;;35.49;19.03
1926;BME280;964;42.606;23.588;2023-03-21T10:18:29;94185.38;;;38.73;16.67
1926;BME280;964;42.606;23.588;2023-03-21T10:20:56;94174.44;;;39.45;16.37
1926;BME280;964;42.606;23.588;2023-03-21T10:23:26;94160.75;;;39.90;16.49
1926;BME280;964;42.606;23.588;2023-03-21T10:25:56;94165.72;;;40.88;15.91
1926;BME280;964;42.606;23.588;2023-03-21T10:28:26;94174.88;;;42.06;14.81
1926;BME280;964;42.606;23.588;2023-03-21T10:30:56;94170.19;;;42.49;14.67
1926;BME280;964;42.606;23.588;2023-03-21T10:33:28;94163.47;;;42.52;14.68
1926;BME280;964;42.606;23.588;2023-03-21T10:35:58;94172.56;;;42.28;15.11
1926;BME280;964;42.606;23.588;2023-03-21T10:38:27;94173.06;;;42.34;13.88
1926;BME280;964;42.606;23.588;2023-03-21T10:40:54;94175.75;;;41.84;13.72
1926;BME280;964;42.606;23.588;2023-03-21T10:43:33;94170.81;;;42.08;13.72
1926;BME280;964;42.606;23.588;2023-03-21T10:46:10;94157.66;;;42.82;13.27
1926;BME280;964;42.606;23.588;2023-03-21T10:48:40;94160.78;;;42.69;14.45
1926;BME280;964;42.606;23.588;2023-03-21T10:51:14;94167.03;;;41.02;14.38
1926;BME280;964;42.606;23.588;2023-03-21T10:53:45;94166.25;;;40.34;14.15
1926;BME280;964;42.606;23.588;2023-03-21T10:56:16;94162.56;;;40.39;14.54
1926;BME280;964;42.606;23.588;2023-03-21T10:58:44;94160.31;;;41.21;14.19
1926;BME280;964;42.606;23.588;2023-03-21T11:01:15;94153.69;;;41.08;14.57
1926;BME280;964;42.606;23.588;2023-03-21T11:03:55;94145.75;;;41.60;13.94
1926;BME280;964;42.606;23.588;2023-03-21T11:06:26;94150.97;;;41.56;14.45
1926;BME280;964;42.606;23.588;2023-03-21T11:08:55;94148.13;;;41.71;14.51
1926;BME280;964;42.606;23.588;2023-03-21T11:11:26;94147.94;;;41.69;13.98
1926;BME280;964;42.606;23.588;2023-03-21T11:13:56;94145.66;;;41.28;13.77
1926;BME280;964;42.606;23.588;2023-03-21T11:16:25;94139.25;;;40.80;14.85
1926;BME280;964;42.606;23.588;2023-03-21T11:18:58;94134.34;;;41.26;14.64
1926;BME280;964;42.606;23.588;2023-03-21T11:21:25;94134.72;;;41.22;15.25
1926;BME280;964;42.606;23.588;2023-03-21T11:23:55;94134.78;;;40.84;14.19
1926;BME280;964;42.606;23.588;2023-03-21T11:26:26;94132.28;;;41.49;14.48
1926;BME280;964;42.606;23.588;2023-03-21T11:28:55;94121.53;;;41.85;14.21
1926;BME280;964;42.606;23.588;2023-03-21T11:31:35;94131.84;;;40.59;14.77
1926;BME280;964;42.606;23.588;2023-03-21T11:34:06;94124.72;;;41.19;14.50
1926;BME280;964;42.606;23.588;2023-03-21T11:36:35;94122.50;;;41.18;14.72
1926;BME280;964;42.606;23.588;2023-03-21T11:39:14;94114.59;;;40.91;14.18
1926;BME280;964;42.606;23.588;2023-03-21T11:41:41;94122.34;;;39.58;15.30
1926;BME280;964;42.606;23.588;2023-03-21T11:44:25;94120.44;;;39.46;15.18
1926;BME280;964;42.606;23.588;2023-03-21T11:46:52;94106.19;;;40.00;15.04
1926;BME280;964;42.606;23.588;2023-03-21T11:49:21;94116.06;;;39.65;14.82
1926;BME280;964;42.606;23.588;2023-03-21T11:51:53;94105.47;;;40.07;14.87
1926;BME280;964;42.606;23.588;2023-03-21T11:54:27;94104.41;;;40.26;14.47
1926;BME280;964;42.606;23.588;2023-03-21T11:57:01;94099.22;;;40.45;14.57
1926;BME280;964;42.606;23.588;2023-03-21T11:59:40;94095.66;;;41.13;14.55
1926;BME280;964;42.606;23.588;2023-03-21T12:02:23;94093.97;;;39.96;15.08
1926;BME280;964;42.606;23.588;2023-03-21T12:04:55;94088.13;;;40.68;14.49
1926;BME280;964;42.606;23.588;2023-03-21T12:07:38;94086.25;;;40.62;14.42
1926;BME280;964;42.606;23.588;2023-03-21T12:10:26;94083.25;;;40.91;14.45
1926;BME280;964;42.606;23.588;2023-03-21T12:13:04;94081.81;;;40.22;14.42
1926;BME280;964;42.606;23.588;2023-03-21T12:15:40;94079.22;;;40.24;14.83
1926;BME280;964;42.606;23.588;2023-03-21T12:18:28;94083.66;;;40.34;14.23
1926;BME280;964;42.606;23.588;2023-03-21T12:21:05;94081.19;;;40.00;14.87
1926;BME280;964;42.606;23.588;2023-03-21T12:23:54;94077.34;;;40.34;15.36
1926;BME280;964;42.606;23.588;2023-03-21T12:26:25;94070.16;;;40.69;14.72
1926;BME280;964;42.606;23.588;2023-03-21T12:29:06;94077.72;;;40.23;14.19
1926;BME280;964;42.606;23.588;2023-03-21T12:31:43;94076.44;;;40.46;14.47
1926;BME280;964;42.606;23.588;2023-03-21T12:34:23;94073.84;;;40.41;14.06
1926;BME280;964;42.606;23.588;2023-03-21T12:37:05;94069.59;;;40.25;14.75
1926;BME280;964;42.606;23.588;2023-03-21T12:39:36;94064.78;;;40.63;15.03
1926;BME280;964;42.606;23.588;2023-03-21T12:42:35;94059.94;;;40.71;14.26
1926;BME280;964;42.606;23.588;2023-03-21T12:45:11;94060.91;;;40.13;14.96
1926;BME280;964;42.606;23.588;2023-03-21T12:47:43;94052.13;;;40.77;14.38
1926;BME280;964;42.606;23.588;2023-03-21T12:50:16;94045.50;;;40.04;14.93
1926;BME280;964;42.606;23.588;2023-03-21T12:52:49;94048.50;;;40.22;15.21
1926;BME280;964;42.606;23.588;2023-03-21T12:55:19;94053.44;;;39.85;15.71
1926;BME280;964;42.606;23.588;2023-03-21T12:57:49;94049.50;;;39.65;15.21
1926;BME280;964;42.606;23.588;2023-03-21T13:00:21;94045.13;;;39.85;14.94
1926;BME280;964;42.606;23.588;2023-03-21T13:02:50;94043.97;;;39.73;15.59
1926;BME280;964;42.606;23.588;2023-03-21T13:05:22;94040.31;;;40.08;15.66
1926;BME280;964;42.606;23.588;2023-03-21T13:07:58;94047.31;;;39.79;15.44
1926;BME280;964;42.606;23.588;2023-03-21T13:10:26;94040.78;;;39.10;15.63
1926;BME280;964;42.606;23.588;2023-03-21T13:13:08;94042.06;;;39.53;15.57
1926;BME280;964;42.606;23.588;2023-03-21T13:15:50;94040.59;;;39.59;16.02
1926;BME280;964;42.606;23.588;2023-03-21T13:18:28;94044.09;;;39.01;15.62
1926;BME280;964;42.606;23.588;2023-03-21T13:21:00;94044.16;;;38.52;15.55
1926;BME280;964;42.606;23.588;2023-03-21T13:23:35;94038.75;;;38.75;15.31
1926;BME280;964;42.606;23.588;2023-03-21T13:26:03;94035.59;;;38.43;15.43
1926;BME280;964;42.606;23.588;2023-03-21T13:28:34;94033.22;;;38.75;15.71
1926;BME280;964;42.606;23.588;2023-03-21T13:31:18;94021.97;;;39.16;15.41
1926;BME280;964;42.606;23.588;2023-03-21T13:33:47;94028.22;;;39.09;15.70
1926;BME280;964;42.606;23.588;2023-03-21T13:36:20;94023.19;;;39.00;15.85
1926;BME280;964;42.606;23.588;2023-03-21T13:38:52;94022.13;;;38.75;16.12
1926;BME280;964;42.606;23.588;2023-03-21T13:41:25;94009.41;;;39.15;15.85
1926;BME280;964;42.606;23.588;2023-03-21T13:44:04;94025.81;;;37.79;16.88
1926;BME280;964;42.606;23.588;2023-03-21T13:46:35;94013.72;;;38.88;15.46
1926;BME280;964;42.606;23.588;2023-03-21T13:49:14;94018.63;;;38.46;15.95
1926;BME280;964;42.606;23.588;2023-03-21T13:51:43;94019.94;;;38.81;15.32
1926;BME280;964;42.606;23.588;2023-03-21T13:54:21;94018.47;;;38.52;15.98
1926;BME280;964;42.606;23.588;2023-03-21T13:56:50;94023.03;;;37.59;16.35
1926;BME280;964;42.606;23.588;2023-03-21T13:59:20;94013.00;;;38.95;16.00
1926;BME280;964;42.606;23.588;2023-03-21T14:02:11;94005.81;;;39.51;15.90
1926;BME280;964;42.606;23.588;2023-03-21T14:04:44;94006.22;;;39.04;16.13
1926;BME280;964;42.606;23.588;2023-03-21T14:07:13;94002.69;;;39.03;15.80
1926;BME280;964;42.606;23.588;2023-03-21T14:09:45;94012.28;;;39.02;16.42
1926;BME280;964;42.606;23.588;2023-03-21T14:12:14;94015.09;;;38.74;16.33
1926;BME280;964;42.606;23.588;2023-03-21T14:14:44;94017.44;;;36.38;17.90
1926;BME280;964;42.606;23.588;2023-03-21T14:17:12;94022.88;;;36.70;17.44
1926;BME280;964;42.606;23.588;2023-03-21T14:19:40;94010.97;;;37.36;17.79
1926;BME280;964;42.606;23.588;2023-03-21T14:22:09;94019.16;;;37.41;17.49
1926;BME280;964;42.606;23.588;2023-03-21T14:24:37;94017.84;;;36.95;17.34
1926;BME280;964;42.606;23.588;2023-03-21T14:27:07;94021.47;;;35.92;18.36
1926;BME280;964;42.606;23.588;2023-03-21T14:29:34;94017.13;;;37.08;17.57
1926;BME280;964;42.606;23.588;2023-03-21T14:32:02;94027.94;;;36.27;18.17
1926;BME280;964;42.606;23.588;2023-03-21T14:34:32;94028.19;;;35.97;18.26
1926;BME280;964;42.606;23.588;2023-03-21T14:37:01;94027.41;;;35.52;18.52
1926;BME280;964;42.606;23.588;2023-03-21T14:39:29;94025.88;;;36.01;18.19
1926;BME280;964;42.606;23.588;2023-03-21T14:42:01;94024.69;;;35.09;19.01